createdAt,value
2023-01-06T00:03:53.869Z,14.00
2023-01-06T00:08:58.253Z,14.00
2023-01-06T00:14:03.302Z,14.00
2023-01-06T00:19:05.532Z,14.00
2023-01-06T00:24:08.585Z,14.00
2023-01-06T00:29:11.288Z,14.00
2023-01-06T00:34:13.256Z,14.00
2023-01-06T00:39:16.072Z,14.00
2023-01-06T00:44:18.408Z,14.00
2023-01-06T00:49:21.944Z,14.00
2023-01-06T00:54:24.258Z,14.10
2023-01-06T00:59:27.127Z,14.00
2023-01-06T01:04:30.106Z,14.10
2023-01-06T01:09:32.606Z,14.00
2023-01-06T01:14:37.752Z,14.00
2023-01-06T01:19:41.532Z,14.10
2023-01-06T01:24:43.745Z,14.00
2023-01-06T01:29:46.486Z,14.00
2023-01-06T01:34:48.802Z,14.10
2023-01-06T01:45:21.863Z,14.10
2023-01-06T01:50:44.568Z,14.10
2023-01-06T01:55:50.589Z,14.10
2023-01-06T02:00:53.445Z,14.10
2023-01-06T02:06:01.022Z,14.10
2023-01-06T02:16:43.959Z,14.10
2023-01-06T02:22:21.090Z,14.10
2023-01-06T02:27:51.154Z,14.10
2023-01-06T02:38:38.441Z,14.10
2023-01-06T02:44:10.087Z,14.00
2023-01-06T02:49:16.849Z,14.00
2023-01-06T02:54:30.308Z,14.00
2023-01-06T02:59:39.741Z,13.50
2023-01-06T03:04:46.933Z,14.00
2023-01-06T03:09:52.532Z,14.00
2023-01-06T03:14:56.328Z,14.10
2023-01-06T03:19:59.141Z,14.10
2023-01-06T03:25:02.648Z,14.10
2023-01-06T03:30:09.546Z,14.10
2023-01-06T03:35:32.078Z,14.10
2023-01-06T03:41:02.320Z,14.10
2023-01-06T03:46:08.142Z,14.10
2023-01-06T03:51:39.008Z,14.10
2023-01-06T03:56:51.281Z,14.10
2023-01-06T04:01:53.672Z,14.10
2023-01-06T04:06:56.657Z,14.10
2023-01-06T04:17:20.986Z,14.10
2023-01-06T04:22:23.765Z,14.10
2023-01-06T04:27:26.022Z,14.10
2023-01-06T04:32:28.504Z,14.20
2023-01-06T04:37:31.259Z,14.20
2023-01-06T04:42:53.734Z,14.20
2023-01-06T04:47:55.888Z,14.10
2023-01-06T04:52:58.060Z,14.20
2023-01-06T04:58:00.136Z,14.20
2023-01-06T05:03:02.510Z,14.20
2023-01-06T05:08:07.051Z,14.20
2023-01-06T05:13:09.194Z,14.20
2023-01-06T05:18:11.298Z,14.20
2023-01-06T05:23:13.428Z,14.20
2023-01-06T05:28:15.553Z,14.20
2023-01-06T05:33:17.983Z,14.20
2023-01-06T05:38:20.309Z,14.20
2023-01-06T05:43:22.875Z,14.20
2023-01-06T05:48:27.755Z,14.10
2023-01-06T05:53:34.812Z,14.10
2023-01-06T05:58:40.395Z,14.10
2023-01-06T06:03:43.060Z,14.10
2023-01-06T06:08:45.227Z,14.10
2023-01-06T06:13:54.149Z,14.10
2023-01-06T06:18:59.496Z,14.10
2023-01-06T06:24:01.798Z,14.10
2023-01-06T06:29:07.760Z,14.10
2023-01-06T06:34:12.536Z,14.10
2023-01-06T06:39:14.851Z,14.00
2023-01-06T06:44:17.135Z,14.10
2023-01-06T06:49:19.500Z,14.00
2023-01-06T06:54:21.675Z,13.80
2023-01-06T06:59:23.989Z,13.80
2023-01-06T07:04:26.105Z,13.70
2023-01-06T07:09:28.319Z,13.70
2023-01-06T07:14:30.585Z,13.50
2023-01-06T07:19:35.495Z,13.40
2023-01-06T07:24:37.863Z,13.40
2023-01-06T07:29:40.039Z,13.40
2023-01-06T07:34:42.146Z,13.40
2023-01-06T07:39:44.274Z,13.40
2023-01-06T07:44:46.450Z,13.30
2023-01-06T07:49:48.803Z,13.30
2023-01-06T07:54:51.100Z,13.20
2023-01-06T07:59:53.372Z,13.20
2023-01-06T08:04:55.549Z,13.20
2023-01-06T08:09:57.774Z,13.20
2023-01-06T08:14:59.930Z,13.20
2023-01-06T08:20:02.452Z,13.20
2023-01-06T08:25:07.298Z,13.30
2023-01-06T08:30:10.134Z,13.30
2023-01-06T08:35:12.218Z,13.40
2023-01-06T08:40:14.663Z,13.30
2023-01-06T08:45:17.168Z,13.40
2023-01-06T08:50:19.403Z,13.40
2023-01-06T08:55:21.749Z,13.50
2023-01-06T09:00:24.043Z,13.50
2023-01-06T09:05:26.274Z,13.60
2023-01-06T09:10:28.595Z,13.70
2023-01-06T09:15:30.860Z,13.80
2023-01-06T09:20:35.777Z,13.90
2023-01-06T09:25:38.071Z,14.00
2023-01-06T09:30:40.863Z,14.00
2023-01-06T09:35:43.502Z,14.00
2023-01-06T09:41:17.825Z,14.10
2023-01-06T09:46:30.603Z,14.00
2023-01-06T09:51:35.371Z,14.10
2023-01-06T09:56:40.271Z,14.10
2023-01-06T10:01:47.364Z,14.20
2023-01-06T10:07:19.896Z,14.20
2023-01-06T10:12:32.810Z,14.40
2023-01-06T10:18:02.690Z,14.30
2023-01-06T10:23:38.623Z,14.40
2023-01-06T10:28:48.305Z,14.40
2023-01-06T10:33:53.364Z,14.40
2023-01-06T10:38:56.755Z,14.60
2023-01-06T10:43:59.086Z,14.70
2023-01-06T10:49:02.705Z,14.80
2023-01-06T10:54:09.535Z,14.80
2023-01-06T10:59:14.039Z,14.80
2023-01-06T11:04:19.662Z,14.90
2023-01-06T11:09:36.334Z,14.80
2023-01-06T11:14:40.063Z,14.70
2023-01-06T11:19:46.796Z,14.70
2023-01-06T11:24:53.337Z,14.60
2023-01-06T11:29:55.466Z,14.60
2023-01-06T11:35:03.776Z,14.60
2023-01-06T11:40:21.633Z,14.70
2023-01-06T11:45:29.802Z,14.60
2023-01-06T11:50:32.495Z,14.70
2023-01-06T11:55:34.646Z,14.70
2023-01-06T12:00:53.485Z,14.80
2023-01-06T12:06:13.788Z,14.80
2023-01-06T12:11:27.704Z,14.80
2023-01-06T12:16:39.148Z,15.30
2023-01-06T12:21:42.748Z,15.10
2023-01-06T12:26:45.700Z,15.00
2023-01-06T12:31:57.238Z,15.10
2023-01-06T12:37:22.668Z,15.10
2023-01-06T12:42:51.413Z,15.10
2023-01-06T12:47:56.089Z,15.10
2023-01-06T12:53:04.752Z,15.20
2023-01-06T12:58:27.561Z,15.20
2023-01-06T13:04:01.547Z,15.30
2023-01-06T13:09:26.453Z,15.10
2023-01-06T13:14:52.817Z,14.90
2023-01-06T13:19:57.913Z,14.90
2023-01-06T13:25:08.903Z,14.90
2023-01-06T13:30:33.083Z,14.90
2023-01-06T13:35:58.747Z,14.90
2023-01-06T13:46:10.082Z,15.00
2023-01-06T13:51:15.949Z,15.00
2023-01-06T14:01:20.865Z,14.90
2023-01-06T14:06:23.136Z,14.90
2023-01-06T14:11:34.334Z,14.90
2023-01-06T14:16:47.023Z,15.00
2023-01-06T14:21:52.695Z,15.00
2023-01-06T14:27:06.102Z,15.10
2023-01-06T14:32:28.146Z,15.10
2023-01-06T14:37:50.592Z,15.00
2023-01-06T14:42:55.108Z,15.00
2023-01-06T14:48:05.582Z,14.90
2023-01-06T14:53:18.775Z,14.90
2023-01-06T14:58:36.712Z,15.00
2023-01-06T15:03:40.294Z,14.70
2023-01-06T15:08:42.428Z,14.70
2023-01-06T15:13:45.205Z,14.50
2023-01-06T15:23:53.036Z,14.40
2023-01-06T15:29:05.822Z,14.50
2023-01-06T15:34:35.275Z,14.20
2023-01-06T15:39:39.723Z,14.20
2023-01-06T15:44:53.308Z,14.10
2023-01-06T15:50:02.393Z,14.00
2023-01-06T15:55:19.442Z,14.00
2023-01-06T16:00:25.143Z,14.00
2023-01-06T16:05:43.100Z,14.10
2023-01-06T16:10:48.647Z,14.00
2023-01-06T16:16:15.554Z,14.10
2023-01-06T16:21:30.005Z,14.10
2023-01-06T16:26:43.494Z,14.10
2023-01-06T16:31:53.065Z,14.10
2023-01-06T16:36:57.972Z,14.10
2023-01-06T16:42:00.122Z,14.20
2023-01-06T16:47:02.909Z,14.20
2023-01-06T16:52:06.180Z,14.20
2023-01-06T16:57:11.226Z,14.20
2023-01-06T17:02:16.015Z,14.20
2023-01-06T17:07:18.719Z,14.20
2023-01-06T17:12:39.463Z,14.20
2023-01-06T17:17:41.767Z,14.20
2023-01-06T17:22:43.945Z,14.20
2023-01-06T17:27:48.291Z,14.20
2023-01-06T17:32:51.343Z,14.20
2023-01-06T17:37:54.792Z,14.10
2023-01-06T17:43:14.637Z,14.20
2023-01-06T17:48:16.888Z,14.10
2023-01-06T17:53:49.725Z,14.10
2023-01-06T17:58:51.966Z,14.00
2023-01-06T18:03:58.117Z,13.80
2023-01-06T18:14:33.031Z,14.00
2023-01-06T18:19:37.429Z,13.90
2023-01-06T18:24:40.941Z,13.90
2023-01-06T18:29:44.643Z,13.90
2023-01-06T18:34:49.036Z,13.90
2023-01-06T18:39:53.516Z,13.80
2023-01-06T18:45:09.352Z,13.80
2023-01-06T18:50:20.312Z,13.90
2023-01-06T18:55:31.005Z,14.00
2023-01-06T19:00:47.804Z,13.90
2023-01-06T19:05:54.055Z,14.10
2023-01-06T19:10:56.251Z,13.60
2023-01-06T19:16:07.688Z,13.70
2023-01-06T19:21:14.808Z,13.70
2023-01-06T19:26:35.353Z,13.60
2023-01-06T19:31:39.247Z,13.60
2023-01-06T19:36:49.175Z,13.60
2023-01-06T19:41:58.140Z,13.50
2023-01-06T19:47:10.869Z,13.60
2023-01-06T19:52:34.432Z,13.70
2023-01-06T19:57:39.990Z,13.60
2023-01-06T20:02:45.672Z,13.60
2023-01-06T20:12:51.412Z,13.60
2023-01-06T20:17:53.582Z,13.60
2023-01-06T20:22:55.697Z,13.50
2023-01-06T20:27:57.921Z,13.50
2023-01-06T20:33:00.065Z,13.40
2023-01-06T20:38:02.372Z,13.30
2023-01-06T20:43:07.142Z,13.30
2023-01-06T20:48:09.285Z,13.20
2023-01-06T20:53:11.515Z,13.20
2023-01-06T20:58:13.643Z,13.20
2023-01-06T21:03:15.842Z,13.20
2023-01-06T21:08:18.360Z,13.20
2023-01-06T21:13:24.011Z,13.20
2023-01-06T21:18:26.368Z,13.20
2023-01-06T21:23:28.510Z,13.20
2023-01-06T21:28:30.602Z,13.20
2023-01-06T21:33:34.855Z,13.20
2023-01-06T21:38:37.473Z,13.30
2023-01-06T21:43:39.549Z,13.20
2023-01-06T21:48:41.718Z,13.20
2023-01-06T21:53:44.007Z,13.20
2023-01-06T21:58:46.173Z,13.10
2023-01-06T22:03:48.529Z,13.10
2023-01-06T22:08:52.688Z,13.10
2023-01-06T22:13:55.130Z,13.10
2023-01-06T22:18:58.233Z,13.20
2023-01-06T22:24:00.526Z,13.20
2023-01-06T22:29:03.070Z,13.20
2023-01-06T22:34:07.297Z,13.20
2023-01-06T22:39:09.421Z,13.10
2023-01-06T22:44:11.562Z,13.10
2023-01-06T22:49:14.652Z,13.20
2023-01-06T22:54:16.909Z,13.20
2023-01-06T22:59:19.015Z,13.20
2023-01-06T23:04:21.109Z,13.20
2023-01-06T23:09:23.232Z,13.10
2023-01-06T23:14:25.439Z,13.10
2023-01-06T23:19:27.589Z,13.10
2023-01-06T23:24:29.708Z,13.20
2023-01-06T23:29:32.792Z,13.30
2023-01-06T23:34:35.017Z,13.10
2023-01-06T23:39:37.181Z,13.10
2023-01-06T23:44:39.286Z,13.10
2023-01-06T23:49:41.440Z,13.10
2023-01-06T23:54:43.599Z,13.10
2023-01-06T23:59:45.779Z,13.10
